Time;durP1;ratioP1;P1;durP2;ratioP2;P2;SDS_P1;SDS_P2;PMS_P1;PMS_P2;Temp;Humidity;BMP_temperature;BMP_pressure;BME280_temperature;BME280_humidity;BME280_pressure;Samples;Min_cycle;Max_cycle;Signal;HPM_P1;HPM_P2
2022/10/17 00:01:54;;;;;;;60.00;32.42;;;14.70;99.90;;;;;;5002481;28;20034;-71
2022/10/17 00:04:19;;;;;;;53.75;30.38;;;14.70;99.90;;;;;;5002436;28;20096;-71
2022/10/17 00:06:45;;;;;;;55.47;30.40;;;14.80;99.90;;;;;;4997150;28;20034;-71
2022/10/17 00:09:11;;;;;;;50.75;28.48;;;14.70;99.90;;;;;;4993483;28;20038;-71
2022/10/17 00:11:36;;;;;;;57.15;31.95;;;14.60;99.90;;;;;;4992885;28;20041;-71
2022/10/17 00:14:02;;;;;;;52.97;30.30;;;14.60;99.90;;;;;;4998093;28;20117;-71
2022/10/17 00:16:32;;;;;;;54.65;30.42;;;14.50;99.90;;;;;;4997264;28;20064;-71
2022/10/17 00:18:58;;;;;;;48.83;28.60;;;14.40;99.90;;;;;;4993305;28;20599;-71
2022/10/17 00:21:24;;;;;;;46.85;29.33;;;14.50;99.90;;;;;;4995521;28;20038;-72
2022/10/17 00:23:50;;;;;;;47.95;27.60;;;14.50;99.90;;;;;;4996246;28;20031;-72
2022/10/17 00:26:16;;;;;;;54.45;28.70;;;14.40;99.90;;;;;;5000215;28;20088;-72
2022/10/17 00:28:44;;;;;;;53.55;30.02;;;14.30;99.90;;;;;;4998998;28;20045;-72
2022/10/17 00:31:10;;;;;;;56.03;29.48;;;14.30;99.90;;;;;;4998674;28;20030;-71
2022/10/17 00:33:36;;;;;;;50.25;28.65;;;14.30;99.90;;;;;;4998672;28;20044;-72
2022/10/17 00:36:05;;;;;;;57.78;31.60;;;14.30;99.90;;;;;;4990559;28;20033;-71
2022/10/17 00:38:30;;;;;;;60.92;31.10;;;14.30;99.90;;;;;;4998529;28;20405;-72
2022/10/17 00:40:56;;;;;;;58.70;34.17;;;14.30;99.90;;;;;;5000192;28;20014;-72
2022/10/17 00:43:22;;;;;;;55.75;30.75;;;14.30;99.90;;;;;;5000498;28;20034;-72
2022/10/17 00:45:47;;;;;;;53.00;32.80;;;14.50;99.90;;;;;;4996409;28;20397;-73
2022/10/17 00:48:14;;;;;;;56.72;30.75;;;14.40;99.90;;;;;;4993984;28;20492;-73
2022/10/17 00:50:44;;;;;;;65.65;35.65;;;14.40;99.90;;;;;;4996912;28;20030;-71
2022/10/17 00:53:10;;;;;;;55.80;32.47;;;14.40;99.90;;;;;;4996251;28;20037;-71
2022/10/17 00:55:49;;;;;;;58.80;32.08;;;14.40;99.90;;;;;;4997894;28;20072;-72
2022/10/17 00:58:16;;;;;;;53.95;30.83;;;14.30;99.90;;;;;;5006925;28;20047;-72
2022/10/17 01:00:43;;;;;;;58.33;32.58;;;14.20;99.90;;;;;;4994859;28;20386;-72
2022/10/17 01:03:09;;;;;;;56.42;32.97;;;14.20;99.90;;;;;;4993500;28;20042;-72
2022/10/17 01:05:35;;;;;;;63.15;33.00;;;14.20;99.90;;;;;;4997550;28;20404;-72
2022/10/17 01:08:01;;;;;;;53.25;31.20;;;14.30;99.90;;;;;;5001209;28;20369;-72
2022/10/17 01:10:33;;;;;;;61.88;34.22;;;14.30;99.90;;;;;;5001496;28;20459;-71
2022/10/17 01:13:34;;;;;;;58.03;30.45;;;14.20;99.90;;;;;;4997414;28;20026;-72
2022/10/17 01:16:51;;;;;;;62.58;33.00;;;14.30;99.90;;;;;;4995833;28;20058;-71
2022/10/17 01:19:28;;;;;;;51.33;29.15;;;14.20;99.90;;;;;;4986870;28;20556;-71
2022/10/17 01:22:19;;;;;;;55.90;29.50;;;14.10;99.90;;;;;;4987853;28;20065;-72
2022/10/17 01:25:06;;;;;;;57.40;30.75;;;14.00;99.90;;;;;;4996203;28;20039;-72
2022/10/17 01:28:00;;;;;;;53.45;31.50;;;14.00;99.90;;;;;;4987193;28;20521;-72
2022/10/17 01:30:35;;;;;;;53.97;29.77;;;14.00;99.90;;;;;;4993558;28;20498;-71
2022/10/17 01:33:05;;;;;;;54.05;29.40;;;13.80;99.90;;;;;;5009223;28;20059;-71
2022/10/17 01:35:38;;;;;;;55.08;29.88;;;13.80;99.90;;;;;;4993005;28;20062;-71
2022/10/17 01:38:16;;;;;;;56.25;31.52;;;13.70;99.90;;;;;;4993672;28;20034;-71
2022/10/17 01:40:48;;;;;;;52.13;29.88;;;13.70;99.90;;;;;;4996188;28;20030;-71
2022/10/17 01:43:32;;;;;;;55.33;28.98;;;13.60;99.90;;;;;;4998803;28;20072;-71
2022/10/17 01:46:21;;;;;;;55.75;30.88;;;13.80;99.90;;;;;;4993101;28;20041;-71
2022/10/17 01:48:47;;;;;;;46.78;28.08;;;13.80;99.90;;;;;;4991075;28;20374;-71
2022/10/17 01:51:20;;;;;;;47.55;28.42;;;13.70;99.90;;;;;;4991507;28;20093;-71
2022/10/17 01:53:53;;;;;;;49.67;26.88;;;13.70;99.90;;;;;;4998089;28;20046;-71
2022/10/17 01:56:22;;;;;;;48.25;28.55;;;13.70;99.90;;;;;;5004199;28;20030;-71
2022/10/17 01:58:56;;;;;;;52.60;29.05;;;13.70;99.90;;;;;;4996557;28;20479;-72
2022/10/17 02:01:25;;;;;;;49.55;26.02;;;13.90;99.90;;;;;;5000466;28;20033;-71
2022/10/17 02:03:52;;;;;;;42.80;24.65;;;14.10;99.90;;;;;;4998451;28;21722;-71
2022/10/17 02:06:18;;;;;;;42.38;25.05;;;14.10;99.90;;;;;;4996305;28;20495;-72
2022/10/17 02:08:46;;;;;;;46.58;26.30;;;14.10;99.90;;;;;;4998027;28;20042;-71
2022/10/17 02:11:26;;;;;;;43.35;24.33;;;14.00;99.90;;;;;;4992043;28;20038;-71
2022/10/17 02:13:57;;;;;;;47.25;26.10;;;14.00;99.90;;;;;;4998252;28;20041;-72
2022/10/17 02:16:45;;;;;;;43.42;26.48;;;14.00;99.90;;;;;;4988518;28;20030;-72
2022/10/17 02:19:20;;;;;;;40.55;25.67;;;13.90;99.90;;;;;;4998610;28;20030;-72
2022/10/17 02:22:04;;;;;;;42.88;24.10;;;13.70;99.90;;;;;;5000188;28;20484;-72
2022/10/17 02:24:53;;;;;;;45.78;25.33;;;13.40;99.90;;;;;;4995893;28;20129;-72
2022/10/17 02:27:46;;;;;;;45.60;24.75;;;13.50;99.90;;;;;;4990036;28;20038;-72
2022/10/17 02:30:22;;;;;;;42.70;25.35;;;13.50;99.90;;;;;;4992568;28;20033;-71
2022/10/17 02:32:50;;;;;;;40.83;25.30;;;13.70;99.90;;;;;;4991916;28;20113;-72
2022/10/17 02:35:18;;;;;;;45.08;25.45;;;13.70;99.90;;;;;;5001272;28;20034;-71
2022/10/17 02:37:46;;;;;;;42.58;25.58;;;13.60;99.90;;;;;;4992453;28;20084;-72
2022/10/17 02:40:14;;;;;;;45.60;25.95;;;13.70;99.90;;;;;;4996034;28;20035;-72
2022/10/17 02:42:43;;;;;;;45.70;25.05;;;13.70;99.90;;;;;;5005805;28;20029;-72
2022/10/17 02:45:13;;;;;;;42.55;26.98;;;13.80;99.90;;;;;;5002257;28;20038;-72
2022/10/17 02:47:57;;;;;;;44.40;25.15;;;13.50;99.90;;;;;;5001273;28;20057;-72
2022/10/17 02:50:30;;;;;;;43.47;25.55;;;13.40;99.90;;;;;;5000996;28;20091;-72
2022/10/17 02:53:07;;;;;;;41.45;25.23;;;13.50;99.90;;;;;;4995384;28;20049;-72
2022/10/17 02:55:38;;;;;;;40.92;25.55;;;13.50;99.90;;;;;;5006063;28;20053;-72
2022/10/17 02:58:10;;;;;;;47.63;25.08;;;13.40;99.90;;;;;;5003164;28;20060;-71
2022/10/17 03:00:39;;;;;;;45.75;24.38;;;13.60;99.90;;;;;;5000819;28;20104;-71
2022/10/17 03:03:22;;;;;;;45.25;26.08;;;13.50;99.90;;;;;;4995324;28;20034;-71
2022/10/17 03:05:47;;;;;;;45.80;25.10;;;13.50;99.90;;;;;;4991112;28;20069;-71
2022/10/17 03:08:13;;;;;;;41.95;23.98;;;13.40;99.90;;;;;;4996532;28;20069;-71
2022/10/17 03:10:39;;;;;;;50.10;27.48;;;13.40;99.90;;;;;;4989648;28;20030;-71
2022/10/17 03:13:04;;;;;;;43.17;26.33;;;13.40;99.90;;;;;;4993843;28;20046;-71
2022/10/17 03:15:30;;;;;;;40.90;23.42;;;13.30;99.90;;;;;;4990118;28;20057;-71
2022/10/17 03:17:56;;;;;;;49.90;24.38;;;13.30;99.90;;;;;;4989252;28;20048;-71
2022/10/17 03:20:21;;;;;;;45.53;25.33;;;13.20;99.90;;;;;;4998921;28;20029;-71
2022/10/17 03:22:47;;;;;;;45.67;26.13;;;13.30;99.90;;;;;;4994905;28;20038;-71
2022/10/17 03:25:12;;;;;;;50.17;25.63;;;13.30;99.90;;;;;;4991704;28;20032;-71
2022/10/17 03:27:38;;;;;;;44.60;24.20;;;13.30;99.90;;;;;;4992369;28;20526;-71
2022/10/17 03:30:04;;;;;;;45.78;25.38;;;13.20;99.90;;;;;;4999291;28;20038;-71
2022/10/17 03:32:32;;;;;;;43.83;27.00;;;13.30;99.90;;;;;;4989915;28;20049;-71
2022/10/17 03:34:58;;;;;;;43.08;25.35;;;13.20;99.90;;;;;;4999892;28;20030;-71
2022/10/17 03:37:24;;;;;;;42.50;24.92;;;13.30;99.90;;;;;;4992905;28;20037;-70
2022/10/17 03:39:49;;;;;;;38.63;23.05;;;13.40;99.90;;;;;;4993410;28;20034;-71
2022/10/17 03:42:15;;;;;;;47.88;25.77;;;13.30;99.90;;;;;;4991484;28;20102;-71
2022/10/17 03:44:41;;;;;;;42.03;24.60;;;13.10;99.90;;;;;;4993957;28;20054;-70
2022/10/17 03:47:06;;;;;;;44.15;23.75;;;13.10;99.90;;;;;;4989470;28;20072;-70
2022/10/17 03:49:32;;;;;;;43.03;25.25;;;13.00;99.90;;;;;;4991371;28;20614;-71
2022/10/17 03:51:57;;;;;;;47.50;25.83;;;13.00;99.90;;;;;;4990234;28;20030;-70
2022/10/17 03:54:23;;;;;;;42.38;24.63;;;12.90;99.90;;;;;;4988066;28;20023;-70
2022/10/17 03:56:49;;;;;;;45.40;24.85;;;13.10;99.90;;;;;;4995856;28;20392;-70
2022/10/17 03:59:15;;;;;;;43.35;24.63;;;13.10;99.90;;;;;;4993112;28;20085;-71
2022/10/17 04:01:41;;;;;;;39.03;23.38;;;13.00;99.90;;;;;;5005150;28;20316;-71
2022/10/17 04:04:07;;;;;;;43.63;24.67;;;13.00;99.90;;;;;;4988700;28;20026;-71
2022/10/17 04:06:33;;;;;;;49.92;25.38;;;12.90;99.90;;;;;;4989997;28;20117;-71
2022/10/17 04:08:59;;;;;;;47.00;26.17;;;12.90;99.90;;;;;;4994574;28;20084;-71
2022/10/17 04:11:24;;;;;;;45.22;26.05;;;13.00;99.90;;;;;;4990363;28;20393;-71
2022/10/17 04:13:55;;;;;;;45.20;26.23;;;13.00;99.90;;;;;;5000343;28;20061;-71
2022/10/17 04:16:21;;;;;;;42.47;24.05;;;13.30;99.90;;;;;;4994590;28;20049;-71
2022/10/17 04:18:51;;;;;;;43.17;24.90;;;13.30;99.90;;;;;;4987507;28;20555;-71
2022/10/17 04:21:17;;;;;;;43.67;25.95;;;13.40;99.90;;;;;;4996675;28;20117;-70
2022/10/17 04:23:43;;;;;;;47.17;25.50;;;13.40;99.90;;;;;;4992119;28;20069;-71
2022/10/17 04:26:08;;;;;;;42.17;24.60;;;13.50;99.90;;;;;;4983787;28;20480;-71
2022/10/17 04:28:35;;;;;;;44.35;24.23;;;13.50;99.90;;;;;;4991184;28;20038;-70
2022/10/17 04:31:05;;;;;;;45.15;25.88;;;13.20;99.90;;;;;;4990027;28;20022;-70
2022/10/17 04:33:31;;;;;;;44.30;24.42;;;13.20;99.90;;;;;;4985446;28;20061;-70
2022/10/17 04:36:02;;;;;;;40.40;24.52;;;13.20;99.90;;;;;;4991081;28;20090;-71
2022/10/17 04:38:29;;;;;;;44.88;25.05;;;13.10;99.90;;;;;;5001585;28;20072;-70
2022/10/17 04:41:04;;;;;;;44.35;24.45;;;13.10;99.90;;;;;;4983175;28;20022;-70
2022/10/17 04:43:34;;;;;;;44.05;24.85;;;13.10;99.90;;;;;;4992021;28;20484;-71
2022/10/17 04:46:02;;;;;;;40.45;22.42;;;13.20;99.90;;;;;;4992549;28;20042;-71
2022/10/17 04:48:29;;;;;;;42.83;24.05;;;12.90;99.90;;;;;;4982259;28;20166;-71
2022/10/17 04:51:03;;;;;;;40.65;22.33;;;12.90;99.90;;;;;;4990321;28;20116;-71
2022/10/17 04:53:31;;;;;;;41.95;23.95;;;12.90;99.90;;;;;;4992381;28;20607;-71
2022/10/17 04:55:57;;;;;;;46.10;24.63;;;12.70;99.90;;;;;;4991345;28;20377;-71
2022/10/17 04:58:22;;;;;;;43.15;24.52;;;12.60;99.90;;;;;;4990716;28;20042;-71
2022/10/17 05:00:48;;;;;;;39.15;22.77;;;12.70;99.90;;;;;;4993026;28;20056;-71
2022/10/17 05:03:14;;;;;;;38.33;22.90;;;12.70;99.90;;;;;;4991845;28;20845;-71
2022/10/17 05:05:40;;;;;;;41.13;22.83;;;12.80;99.90;;;;;;4981856;28;20075;-71
2022/10/17 05:08:08;;;;;;;44.53;24.42;;;12.70;99.90;;;;;;4989305;28;20100;-71
2022/10/17 05:10:38;;;;;;;44.55;24.88;;;12.50;99.90;;;;;;4992252;28;20534;-71
2022/10/17 05:13:04;;;;;;;38.63;21.88;;;12.70;99.90;;;;;;4982741;28;20026;-71
2022/10/17 05:15:30;;;;;;;35.92;22.15;;;12.70;99.90;;;;;;4993628;28;20388;-71
2022/10/17 05:17:56;;;;;;;39.17;22.25;;;12.70;99.90;;;;;;4991761;28;20033;-71
2022/10/17 05:20:22;;;;;;;40.83;22.13;;;12.70;99.90;;;;;;4990522;28;20107;-71
2022/10/17 05:22:48;;;;;;;37.72;23.15;;;12.70;99.90;;;;;;4988731;28;20572;-70
2022/10/17 05:25:14;;;;;;;36.75;21.80;;;12.70;99.90;;;;;;4990258;28;20118;-70
2022/10/17 05:27:39;;;;;;;38.47;22.25;;;12.70;99.90;;;;;;4995187;28;20038;-71
2022/10/17 05:30:06;;;;;;;37.72;22.08;;;12.60;99.90;;;;;;4986936;28;20033;-71
2022/10/17 05:32:31;;;;;;;42.10;24.13;;;12.60;99.90;;;;;;4992149;28;20034;-71
2022/10/17 05:34:57;;;;;;;42.38;24.60;;;12.60;99.90;;;;;;4985535;28;20038;-72
2022/10/17 05:37:23;;;;;;;35.70;21.33;;;12.50;99.90;;;;;;4986455;28;20026;-71
2022/10/17 05:39:48;;;;;;;38.70;22.23;;;12.50;99.90;;;;;;4985361;28;20484;-71
2022/10/17 05:42:14;;;;;;;36.13;21.25;;;12.60;99.90;;;;;;4986478;28;20392;-71
2022/10/17 05:44:40;;;;;;;34.63;19.48;;;12.60;99.90;;;;;;4986576;28;20037;-71
2022/10/17 05:47:07;;;;;;;35.10;19.58;;;12.60;99.90;;;;;;4985407;28;20026;-71
2022/10/17 05:49:33;;;;;;;37.20;20.45;;;12.50;99.90;;;;;;4986198;28;20023;-71
2022/10/17 05:51:58;;;;;;;35.40;22.00;;;12.50;99.90;;;;;;4986225;28;20492;-71
2022/10/17 05:54:24;;;;;;;42.47;22.25;;;12.30;99.90;;;;;;4985733;28;20101;-71
2022/10/17 05:56:51;;;;;;;35.28;20.50;;;12.30;99.90;;;;;;4989578;28;20027;-71
2022/10/17 05:59:17;;;;;;;33.10;19.65;;;12.60;99.90;;;;;;4987458;28;20026;-72
2022/10/17 06:01:42;;;;;;;34.70;20.42;;;12.70;99.90;;;;;;4986130;28;20046;-73
2022/10/17 06:04:08;;;;;;;38.05;21.23;;;12.70;99.90;;;;;;4997530;28;20389;-74
2022/10/17 06:06:36;;;;;;;33.38;19.20;;;12.70;99.90;;;;;;4994488;28;20027;-73
2022/10/17 06:09:01;;;;;;;32.03;19.17;;;12.60;99.90;;;;;;5000025;28;20038;-73
2022/10/17 06:11:27;;;;;;;34.97;19.17;;;12.60;99.90;;;;;;4991502;28;20350;-73
2022/10/17 06:13:53;;;;;;;33.80;19.20;;;12.50;99.90;;;;;;5004341;28;20457;-73
2022/10/17 06:16:18;;;;;;;33.80;19.00;;;12.60;99.90;;;;;;5007699;28;20033;-73
2022/10/17 06:18:44;;;;;;;31.17;18.20;;;12.70;99.90;;;;;;4992112;28;20183;-73
2022/10/17 06:21:13;;;;;;;28.77;17.52;;;12.70;99.90;;;;;;4992892;28;20644;-73
2022/10/17 06:23:39;;;;;;;34.60;20.35;;;12.60;99.90;;;;;;4996055;28;20146;-73
2022/10/17 06:26:06;;;;;;;29.67;18.85;;;12.60;99.90;;;;;;4992910;28;20430;-73
2022/10/17 06:28:32;;;;;;;31.42;16.95;;;12.70;99.90;;;;;;5000782;28;20038;-73
2022/10/17 06:30:58;;;;;;;31.88;17.75;;;12.70;99.90;;;;;;4992186;28;20085;-73
2022/10/17 06:33:24;;;;;;;35.53;18.70;;;12.80;99.90;;;;;;4989833;28;21737;-73
2022/10/17 06:35:54;;;;;;;30.02;18.02;;;12.90;99.90;;;;;;5001564;28;20030;-73
2022/10/17 06:38:20;;;;;;;34.47;17.52;;;12.80;99.90;;;;;;4991629;28;20022;-73
2022/10/17 06:40:46;;;;;;;29.58;17.33;;;12.70;99.90;;;;;;4990914;28;20088;-74
2022/10/17 06:43:12;;;;;;;30.58;17.48;;;12.70;99.90;;;;;;4995509;28;20026;-73
2022/10/17 06:45:39;;;;;;;28.52;17.65;;;12.70;99.90;;;;;;4994364;28;20121;-74
2022/10/17 06:48:05;;;;;;;29.27;16.73;;;12.80;99.90;;;;;;4993341;28;20042;-75
2022/10/17 06:50:30;;;;;;;27.88;16.48;;;12.80;99.90;;;;;;4985492;28;20485;-72
2022/10/17 06:52:56;;;;;;;28.60;16.50;;;12.70;99.90;;;;;;4993167;28;20042;-73
2022/10/17 06:55:22;;;;;;;27.85;15.75;;;12.80;99.90;;;;;;4988431;28;20030;-73
2022/10/17 06:57:47;;;;;;;30.30;16.38;;;12.70;99.90;;;;;;4989620;28;20543;-73
2022/10/17 07:00:13;;;;;;;32.63;17.65;;;12.70;99.90;;;;;;4986540;28;20026;-73
2022/10/17 07:02:41;;;;;;;28.88;16.75;;;12.70;99.90;;;;;;4995874;28;20571;-73
2022/10/17 07:05:07;;;;;;;27.15;16.80;;;12.90;99.90;;;;;;4995073;28;20037;-74
2022/10/17 07:07:32;;;;;;;26.48;15.63;;;13.00;99.90;;;;;;4998583;28;20034;-73
2022/10/17 07:09:58;;;;;;;28.75;15.82;;;13.00;99.90;;;;;;4988036;28;20117;-73
2022/10/17 07:12:24;;;;;;;24.35;15.68;;;13.10;99.90;;;;;;4995379;28;20032;-73
2022/10/17 07:14:50;;;;;;;30.10;15.95;;;13.10;99.90;;;;;;4993513;28;20131;-73
2022/10/17 07:17:17;;;;;;;23.58;15.48;;;13.20;99.90;;;;;;4999075;28;20026;-73
2022/10/17 07:19:43;;;;;;;27.88;17.63;;;13.20;99.90;;;;;;4993981;28;20029;-73
2022/10/17 07:22:10;;;;;;;26.77;15.05;;;13.20;99.90;;;;;;4995051;28;20073;-73
2022/10/17 07:24:35;;;;;;;26.58;16.20;;;13.20;99.90;;;;;;4994136;28;20377;-73
2022/10/17 07:27:01;;;;;;;26.83;16.42;;;13.20;99.90;;;;;;4996256;28;20030;-73
2022/10/17 07:29:27;;;;;;;25.63;16.15;;;13.30;99.90;;;;;;4992182;28;20096;-73
2022/10/17 07:31:53;;;;;;;27.40;16.17;;;13.20;99.90;;;;;;4998491;28;20447;-73
2022/10/17 07:34:19;;;;;;;27.38;15.38;;;13.30;99.90;;;;;;4994210;28;20026;-73
2022/10/17 07:36:44;;;;;;;28.75;16.80;;;13.30;99.90;;;;;;4997538;28;20587;-73
2022/10/17 07:39:11;;;;;;;24.00;15.02;;;13.30;99.90;;;;;;4995343;28;20065;-73
2022/10/17 07:41:37;;;;;;;24.83;15.88;;;13.40;99.90;;;;;;4990593;28;20034;-74
2022/10/17 07:44:02;;;;;;;23.73;16.10;;;13.40;99.90;;;;;;4999438;28;20524;-73
2022/10/17 07:46:28;;;;;;;26.52;14.82;;;13.40;99.90;;;;;;4991453;28;20992;-72
2022/10/17 07:48:54;;;;;;;28.67;14.10;;;13.40;99.90;;;;;;4992983;28;20044;-73
2022/10/17 07:51:20;;;;;;;26.45;14.57;;;13.40;99.90;;;;;;4999240;28;20033;-72
2022/10/17 07:53:46;;;;;;;22.70;13.75;;;13.40;99.90;;;;;;4995476;28;20052;-72
2022/10/17 07:56:12;;;;;;;25.08;15.50;;;13.50;99.90;;;;;;4993896;28;20026;-73
2022/10/17 07:58:39;;;;;;;21.92;12.40;;;13.60;99.90;;;;;;4998668;28;20091;-73
2022/10/17 08:01:07;;;;;;;21.75;13.40;;;13.70;99.90;;;;;;4995072;28;20041;-73
2022/10/17 08:03:33;;;;;;;19.67;13.07;;;13.80;99.90;;;;;;4994098;28;20026;-73
2022/10/17 08:06:00;;;;;;;24.30;13.43;;;13.80;99.90;;;;;;4995231;28;20037;-73
2022/10/17 08:08:26;;;;;;;18.92;11.27;;;13.90;99.90;;;;;;4993553;28;20070;-73
2022/10/17 08:10:53;;;;;;;21.63;12.30;;;13.90;99.90;;;;;;4994091;28;20069;-72
2022/10/17 08:13:20;;;;;;;23.65;13.75;;;14.00;99.90;;;;;;4998448;28;20022;-73
2022/10/17 08:15:46;;;;;;;19.58;13.07;;;14.00;99.90;;;;;;4989114;28;20519;-73
2022/10/17 08:18:13;;;;;;;22.92;14.93;;;14.10;99.90;;;;;;4990825;28;20030;-73
2022/10/17 08:20:40;;;;;;;21.17;13.40;;;14.10;99.90;;;;;;4994935;28;20052;-73
2022/10/17 08:23:05;;;;;;;26.17;13.43;;;14.10;99.90;;;;;;4991418;28;20149;-73
2022/10/17 08:25:32;;;;;;;22.33;12.65;;;14.00;99.90;;;;;;4989276;28;20655;-72
2022/10/17 08:27:58;;;;;;;19.38;12.00;;;14.10;99.90;;;;;;4990326;28;20180;-73
2022/10/17 08:30:24;;;;;;;20.27;12.75;;;14.20;99.90;;;;;;4991218;28;20061;-73
2022/10/17 08:32:49;;;;;;;19.92;12.52;;;14.20;99.90;;;;;;4995555;28;20034;-73
2022/10/17 08:35:15;;;;;;;17.00;10.90;;;14.40;99.90;;;;;;4990454;28;20100;-73
2022/10/17 08:37:41;;;;;;;20.08;11.80;;;14.50;99.90;;;;;;4992724;28;20030;-73
2022/10/17 08:40:16;;;;;;;18.65;12.18;;;14.40;99.90;;;;;;4986585;28;20068;-73
2022/10/17 08:42:52;;;;;;;20.85;12.00;;;14.40;99.90;;;;;;4996318;28;20565;-73
2022/10/17 08:45:46;;;;;;;22.48;14.20;;;14.50;99.90;;;;;;4994661;28;20040;-73
2022/10/17 08:48:16;;;;;;;19.23;11.57;;;14.60;99.90;;;;;;4987325;28;20038;-72
2022/10/17 08:50:58;;;;;;;22.25;11.55;;;14.60;99.90;;;;;;4995318;28;20177;-72
2022/10/17 08:53:28;;;;;;;22.10;12.05;;;14.70;99.90;;;;;;4992156;28;20494;-73
2022/10/17 08:55:55;;;;;;;20.08;11.70;;;14.80;99.90;;;;;;4994923;28;20083;-73
2022/10/17 08:58:31;;;;;;;17.20;10.20;;;14.80;99.90;;;;;;4996966;28;20022;-73
2022/10/17 09:01:34;;;;;;;20.08;11.90;;;14.70;99.90;;;;;;4997494;28;20125;-73
2022/10/17 09:04:27;;;;;;;18.52;11.18;;;14.80;99.90;;;;;;4994373;28;20030;-73
2022/10/17 09:07:04;;;;;;;20.27;12.07;;;14.90;99.90;;;;;;4993187;28;20536;-73
2022/10/17 09:09:48;;;;;;;17.35;11.05;;;15.00;99.90;;;;;;4995095;28;20030;-73
2022/10/17 09:12:41;;;;;;;18.95;11.20;;;15.10;99.90;;;;;;4996743;28;20064;-73
2022/10/17 09:16:01;;;;;;;19.52;11.48;;;15.00;99.90;;;;;;4998800;28;20049;-74
2022/10/17 09:18:31;;;;;;;23.23;11.57;;;15.20;99.90;;;;;;5020588;28;20102;-72
2022/10/17 09:21:17;;;;;;;20.23;12.38;;;15.20;99.90;;;;;;4993106;28;20042;-72
2022/10/17 09:23:50;;;;;;;19.27;11.65;;;15.20;99.90;;;;;;4994996;28;20553;-73
2022/10/17 09:26:16;;;;;;;18.35;11.50;;;15.30;99.90;;;;;;4997089;28;20025;-72
2022/10/17 09:28:50;;;;;;;18.02;11.40;;;15.30;99.90;;;;;;4993340;28;20362;-73
2022/10/17 09:31:27;;;;;;;16.83;10.77;;;15.50;99.90;;;;;;4991938;28;20097;-73
2022/10/17 09:33:55;;;;;;;14.80;10.30;;;15.50;99.90;;;;;;4985287;28;20031;-73
2022/10/17 09:36:21;;;;;;;18.83;10.57;;;15.60;99.90;;;;;;4986695;28;20113;-72
2022/10/17 09:38:51;;;;;;;16.58;10.85;;;15.60;99.90;;;;;;4985294;28;20654;-72
2022/10/17 09:41:23;;;;;;;16.42;10.23;;;15.60;99.90;;;;;;4986742;28;20038;-73
2022/10/17 09:43:55;;;;;;;18.55;11.13;;;15.60;99.90;;;;;;4991698;28;20031;-73
2022/10/17 09:46:27;;;;;;;21.17;11.20;;;15.80;99.90;;;;;;5002996;28;20034;-73
2022/10/17 09:49:02;;;;;;;19.15;12.15;;;16.00;99.90;;;;;;4999378;28;20039;-72
2022/10/17 09:51:28;;;;;;;;;;;16.10;99.90;;;;;;4992209;28;20034;-73
2022/10/17 09:53:59;;;;;;;21.35;11.88;;;16.10;99.90;;;;;;4993726;28;19913;-72
2022/10/17 09:56:25;;;;;;;27.77;11.23;;;16.30;99.90;;;;;;4992442;28;20026;-73
2022/10/17 09:58:54;;;;;;;18.48;10.88;;;16.40;99.90;;;;;;4994332;28;20029;-72
2022/10/17 10:01:30;;;;;;;18.42;11.98;;;16.30;99.90;;;;;;4988710;28;20077;-72
2022/10/17 10:04:13;;;;;;;16.60;11.40;;;16.40;99.90;;;;;;4993422;28;20749;-72
2022/10/17 10:06:41;;;;;;;44.78;40.17;;;16.60;99.90;;;;;;4995347;28;20407;-73
2022/10/17 10:09:21;;;;;;;33.65;27.60;;;16.70;99.90;;;;;;4994437;28;20225;-72
2022/10/17 10:11:54;;;;;;;25.17;17.48;;;16.70;99.90;;;;;;4996639;28;20153;-72
2022/10/17 10:14:35;;;;;;;17.30;11.63;;;16.80;99.90;;;;;;4996173;28;20042;-73
2022/10/17 10:17:03;;;;;;;24.40;18.75;;;16.80;99.90;;;;;;4999457;28;20105;-73
2022/10/17 10:19:32;;;;;;;17.75;13.00;;;16.90;99.90;;;;;;4998657;28;20064;-72
2022/10/17 10:22:16;;;;;;;17.83;13.27;;;17.00;99.90;;;;;;4992177;28;20114;-73
2022/10/17 10:24:41;;;;;;;27.20;20.20;;;17.30;99.90;;;;;;4996761;28;20088;-73
2022/10/17 10:27:13;;;;;;;23.02;17.73;;;17.30;99.90;;;;;;4997516;28;20025;-72
2022/10/17 10:29:48;;;;;;;21.73;15.35;;;17.40;99.90;;;;;;4990131;28;20038;-73
2022/10/17 10:32:44;;;;;;;20.38;11.07;;;17.50;99.90;;;;;;4997748;28;20034;-73
2022/10/17 10:35:22;;;;;;;19.27;12.48;;;17.50;99.90;;;;;;4987155;28;20093;-73
2022/10/17 10:37:54;;;;;;;16.70;11.38;;;17.50;99.90;;;;;;4982847;28;20372;-73
2022/10/17 10:40:27;;;;;;;18.23;10.55;;;17.90;99.90;;;;;;4987845;28;20065;-72
2022/10/17 10:42:56;;;;;;;18.48;11.93;;;18.20;99.90;;;;;;4990562;28;20025;-72
2022/10/17 10:45:39;;;;;;;20.60;11.32;;;18.20;99.90;;;;;;4996455;28;20480;-74
2022/10/17 10:48:22;;;;;;;17.10;11.52;;;18.10;99.90;;;;;;4993594;28;20038;-74
2022/10/17 10:51:01;;;;;;;19.40;12.18;;;18.10;99.90;;;;;;4994626;28;20427;-74
2022/10/17 10:53:56;;;;;;;18.13;11.20;;;18.20;99.90;;;;;;4991526;28;20029;-74
2022/10/17 10:56:29;;;;;;;19.25;12.02;;;18.40;99.90;;;;;;4991802;28;20034;-74
2022/10/17 10:59:19;;;;;;;15.40;11.00;;;18.40;99.90;;;;;;4991268;28;20137;-74
2022/10/17 11:01:56;;;;;;;20.75;11.85;;;18.60;99.90;;;;;;4990482;28;20088;-74
2022/10/17 11:04:27;;;;;;;18.33;11.95;;;18.50;99.90;;;;;;4996992;28;20928;-74
2022/10/17 11:07:24;;;;;;;17.23;10.32;;;18.40;99.90;;;;;;4995207;28;20118;-74
2022/10/17 11:10:08;;;;;;;20.10;10.65;;;18.50;99.90;;;;;;4993759;28;20148;-75
2022/10/17 11:12:40;;;;;;;17.10;11.13;;;18.70;99.90;;;;;;4995587;28;20040;-74
2022/10/17 11:15:22;;;;;;;19.33;11.48;;;18.90;99.90;;;;;;5001729;28;20060;-74
2022/10/17 11:18:35;;;;;;;23.98;11.43;;;19.00;99.90;;;;;;4996889;28;20030;-74
2022/10/17 11:21:06;;;;;;;17.13;10.23;;;19.10;99.90;;;;;;4998118;28;20053;-74
2022/10/17 11:23:39;;;;;;;19.67;12.10;;;19.40;99.90;;;;;;4990291;28;20088;-74
2022/10/17 11:26:25;;;;;;;18.58;10.68;;;19.50;99.70;;;;;;4996758;28;20077;-74
2022/10/17 11:29:00;;;;;;;16.42;10.32;;;19.50;99.70;;;;;;4993381;28;20484;-74
2022/10/17 11:31:41;;;;;;;17.88;10.13;;;19.50;99.80;;;;;;4995580;28;20042;-74
2022/10/17 11:34:18;;;;;;;18.65;10.90;;;19.80;99.90;;;;;;4990946;28;20019;-72
2022/10/17 11:36:49;;;;;;;16.73;10.95;;;19.80;99.40;;;;;;4993761;28;20030;-75
2022/10/17 11:39:28;;;;;;;16.60;10.85;;;19.70;99.90;;;;;;5002022;28;20069;-74
2022/10/17 11:42:08;;;;;;;17.77;11.13;;;19.70;99.90;;;;;;5001725;28;20454;-75
2022/10/17 11:44:36;;;;;;;13.95;10.15;;;19.80;99.90;;;;;;4994591;28;20041;-75
2022/10/17 11:47:13;;;;;;;19.48;11.02;;;19.90;99.60;;;;;;4996151;28;21062;-74
2022/10/17 11:49:50;;;;;;;15.30;9.40;;;20.10;99.20;;;;;;4998506;28;20037;-75
2022/10/17 11:52:40;;;;;;;13.38;10.55;;;20.20;98.60;;;;;;4988316;28;20034;-74
2022/10/17 11:55:22;;;;;;;24.77;10.55;;;20.10;98.90;;;;;;4997045;28;20037;-74
2022/10/17 11:58:21;;;;;;;15.23;9.55;;;20.10;99.40;;;;;;4999506;28;20779;-74
2022/10/17 12:01:21;;;;;;;18.52;10.20;;;20.40;99.10;;;;;;4991124;28;20036;-74
2022/10/17 12:04:18;;;;;;;16.85;11.23;;;20.20;98.90;;;;;;4989682;28;20034;-74
2022/10/17 12:06:59;;;;;;;16.95;10.40;;;20.30;99.10;;;;;;4995048;28;20030;-75
2022/10/17 12:09:36;;;;;;;20.52;10.55;;;20.50;98.80;;;;;;4998355;28;20034;-74
2022/10/17 12:12:03;;;;;;;13.80;9.85;;;20.50;98.80;;;;;;4997956;28;20113;-75
2022/10/17 12:14:43;;;;;;;16.55;9.45;;;20.50;98.70;;;;;;4996933;28;20483;-74
2022/10/17 12:17:26;;;;;;;13.45;8.57;;;20.70;98.20;;;;;;4987916;28;20584;-74
2022/10/17 12:19:52;;;;;;;14.65;9.50;;;20.60;98.00;;;;;;4991433;28;20480;-74
2022/10/17 12:22:21;;;;;;;17.63;9.82;;;20.60;97.90;;;;;;4990759;28;20026;-75
2022/10/17 12:24:58;;;;;;;15.23;10.10;;;20.70;98.00;;;;;;4991423;28;20030;-74
2022/10/17 12:27:44;;;;;;;14.57;8.85;;;20.60;97.80;;;;;;4989178;28;20046;-74
2022/10/17 12:30:25;;;;;;;12.93;8.73;;;20.80;98.50;;;;;;4997602;28;20073;-75
2022/10/17 12:33:20;;;;;;;45.30;10.45;;;20.60;98.40;;;;;;4994226;28;20026;-74
2022/10/17 12:35:47;;;;;;;14.23;8.82;;;21.00;98.90;;;;;;4992949;28;20488;-75
2022/10/17 12:38:16;;;;;;;16.50;10.15;;;21.20;98.10;;;;;;5000405;28;20124;-74
2022/10/17 12:40:42;;;;;;;15.32;8.82;;;20.90;97.70;;;;;;4998888;28;20030;-75
2022/10/17 12:43:14;;;;;;;12.45;8.80;;;20.70;97.80;;;;;;4996016;28;20034;-75
2022/10/17 12:45:55;;;;;;;14.48;9.30;;;20.90;97.70;;;;;;4987609;28;20468;-75
2022/10/17 12:48:33;;;;;;;12.52;8.75;;;21.00;97.60;;;;;;4997629;28;20121;-75
2022/10/17 12:51:18;;;;;;;12.27;8.60;;;21.10;97.50;;;;;;4997442;28;20036;-75